Time;durP1;ratioP1;P1;durP2;ratioP2;P2;SDS_P1;SDS_P2;PMS_P1;PMS_P2;Temp;Humidity;BMP_temperature;BMP_pressure;BME280_temperature;BME280_humidity;BME280_pressure;Samples;Min_cycle;Max_cycle;Signal;HPM_P1;HPM_P2
2021/12/08 00:01:55;;;;;;;2.85;2.75;;;3.50;1.00;;;;;;4162120;28;20480;-84
2021/12/08 00:03:57;;;;;;;0.10;0.10;;;3.50;1.00;;;;;;4161431;28;20221;-86
2021/12/08 00:06:00;;;;;;;0.20;0.20;;;3.50;1.00;;;;;;4161992;28;20580;-85
2021/12/08 00:08:04;;;;;;;0.13;0.13;;;3.50;1.00;;;;;;4161345;28;20543;-86
2021/12/08 00:14:40;;;;;;;0.10;0.10;;;3.40;1.00;;;;;;4162582;28;20486;-81
2021/12/08 00:16:42;;;;;;;0.10;0.10;;;3.40;1.00;;;;;;4160409;28;20561;-85
2021/12/08 00:18:47;;;;;;;0.23;0.23;;;3.50;1.00;;;;;;4164677;28;20472;-82
2021/12/08 00:20:57;;;;;;;0.00;0.00;;;3.50;1.00;;;;;;4161927;28;20528;-85
2021/12/08 00:23:00;;;;;;;0.13;0.13;;;3.40;1.00;;;;;;4158918;28;20498;-81
2021/12/08 00:25:03;;;;;;;0.00;0.00;;;3.40;1.00;;;;;;4159253;28;20467;-85
2021/12/08 00:27:05;;;;;;;0.00;0.00;;;3.40;1.00;;;;;;4157780;28;20488;-82
2021/12/08 00:29:07;;;;;;;0.17;0.17;;;3.40;1.00;;;;;;4159667;28;20474;-85
2021/12/08 00:31:10;;;;;;;0.00;0.00;;;3.40;1.00;;;;;;4158985;28;20228;-84
2021/12/08 00:33:14;;;;;;;0.00;0.00;;;3.40;1.00;;;;;;4158757;28;21116;-86
2021/12/08 00:35:23;;;;;;;0.00;0.00;;;3.40;1.00;;;;;;4157376;28;20473;-87
2021/12/08 00:37:26;;;;;;;0.00;0.00;;;3.50;1.00;;;;;;4158845;28;20466;-85
2021/12/08 00:39:29;;;;;;;0.00;0.00;;;3.40;1.00;;;;;;4156769;28;20219;-85
2021/12/08 00:41:31;;;;;;;0.57;0.57;;;3.40;1.00;;;;;;4158046;28;20996;-84
2021/12/08 00:43:33;;;;;;;;;;;3.50;1.00;;;;;;4158425;28;20211;-84
2021/12/08 00:45:35;;;;;;;2.35;2.33;;;3.50;1.00;;;;;;4154504;28;20489;-86
2021/12/08 00:47:38;;;;;;;0.32;0.32;;;3.50;1.00;;;;;;4191425;28;20240;-84
2021/12/08 00:49:40;;;;;;;0.13;0.13;;;3.50;1.00;;;;;;4163171;28;20211;-85
2021/12/08 00:51:42;;;;;;;1.40;1.40;;;3.50;1.00;;;;;;4189831;28;20462;-84
2021/12/08 00:53:46;;;;;;;0.20;0.20;;;3.40;1.00;;;;;;4157773;28;21066;-85
2021/12/08 00:55:47;;;;;;;0.00;0.00;;;3.50;1.00;;;;;;4157591;28;20463;-87
2021/12/08 00:57:49;;;;;;;0.00;0.00;;;3.40;1.00;;;;;;4158739;28;20492;-84
2021/12/08 00:59:51;;;;;;;0.00;0.00;;;3.50;1.00;;;;;;4162480;28;20527;-85
2021/12/08 01:02:02;;;;;;;0.03;0.03;;;3.40;1.00;;;;;;4189655;28;20460;-85
2021/12/08 01:04:11;;;;;;;0.00;0.00;;;3.40;1.00;;;;;;4157045;28;20460;-85
2021/12/08 01:06:13;;;;;;;0.08;0.08;;;3.40;1.00;;;;;;4155866;28;21067;-85
2021/12/08 01:08:17;;;;;;;;;;;3.40;1.00;;;;;;4157337;28;21032;-82
2021/12/08 01:10:35;;;;;;;2.40;2.38;;;3.40;1.00;;;;;;4161343;28;20498;-85
2021/12/08 01:12:37;;;;;;;;;;;3.40;1.00;;;;;;4163348;28;20499;-83
2021/12/08 01:14:38;;;;;;;;;;;3.40;1.00;;;;;;4165550;28;20007;-85
2021/12/08 01:16:41;;;;;;;2.30;2.30;;;3.40;1.00;;;;;;4162896;28;20489;-84
2021/12/08 01:18:43;;;;;;;;;;;3.50;1.00;;;;;;4164937;28;20463;-86
2021/12/08 01:20:47;;;;;;;;;;;3.40;1.00;;;;;;4162952;28;19976;-83
2021/12/08 01:22:50;;;;;;;;;;;3.40;1.00;;;;;;4163008;28;20020;-84
2021/12/08 01:24:51;;;;;;;;;;;3.40;1.00;;;;;;4161492;28;19960;-84
2021/12/08 01:26:58;;;;;;;1.35;1.35;;;3.50;1.00;;;;;;4159843;28;20503;-82
2021/12/08 01:29:00;;;;;;;;;;;3.40;1.00;;;;;;4164316;28;20221;-84
2021/12/08 01:31:02;;;;;;;;;;;3.40;1.00;;;;;;4160562;28;19978;-86
2021/12/08 01:33:03;;;;;;;;;;;3.40;1.00;;;;;;4161283;28;19986;-83
2021/12/08 01:35:06;;;;;;;;;;;3.40;1.00;;;;;;4159916;28;20329;-83
2021/12/08 01:37:08;;;;;;;;;;;3.40;1.00;;;;;;4160733;28;19990;-83
2021/12/08 01:39:10;;;;;;;;;;;3.40;1.00;;;;;;4160288;28;19976;-83
2021/12/08 01:41:17;;;;;;;2.13;2.13;;;3.50;1.00;;;;;;4156168;28;20585;-84
2021/12/08 01:43:27;;;;;;;;;;;3.50;1.00;;;;;;4161010;28;20206;-85
2021/12/08 01:47:51;;;;;;;0.38;0.38;;;3.50;1.00;;;;;;4163983;28;19993;-84
2021/12/08 01:49:52;;;;;;;;;;;3.50;1.00;;;;;;4158604;28;20261;-84
2021/12/08 01:51:54;;;;;;;;;;;3.60;1.00;;;;;;4162184;28;19983;-83
2021/12/08 01:54:01;;;;;;;;;;;3.60;1.40;;;;;;4159516;28;19993;-83
2021/12/08 01:56:05;;;;;;;;;;;3.60;3.00;;;;;;4160791;28;19974;-85
2021/12/08 01:58:08;;;;;;;;;;;3.60;3.50;;;;;;4162398;28;19993;-86
2021/12/08 02:00:14;;;;;;;;;;;3.60;4.40;;;;;;4161994;28;20437;-84
2021/12/08 02:02:16;;;;;;;;;;;3.60;4.20;;;;;;4177917;28;19988;-85
2021/12/08 02:04:17;;;;;;;;;;;3.70;5.10;;;;;;4163297;28;19974;-84
2021/12/08 02:06:20;;;;;;;;;;;3.70;5.20;;;;;;4166695;28;20004;-87
2021/12/08 02:08:22;;;;;;;;;;;3.70;6.40;;;;;;4196265;28;19969;-84
2021/12/08 02:10:31;;;;;;;;;;;3.80;7.80;;;;;;4167294;28;19973;-84
2021/12/08 02:12:37;;;;;;;;;;;3.80;7.90;;;;;;4168763;28;20440;-83
2021/12/08 02:14:40;;;;;;;;;;;3.80;9.20;;;;;;4161666;28;20028;-83
2021/12/08 02:16:42;;;;;;;;;;;3.80;8.30;;;;;;4158859;28;20076;-85
2021/12/08 02:18:48;;;;;;;;;;;3.90;9.20;;;;;;4164447;28;19977;-83
2021/12/08 02:21:02;;;;;;;;;;;3.90;9.60;;;;;;4165782;28;20001;-85
2021/12/08 02:23:04;;;;;;;;;;;3.90;9.00;;;;;;4164828;28;19974;-83
2021/12/08 02:25:07;;;;;;;;;;;3.90;9.50;;;;;;4162552;28;20068;-84
2021/12/08 02:27:09;;;;;;;;;;;3.90;9.80;;;;;;4167110;28;20109;-84
2021/12/08 02:29:33;;;;;;;;;;;3.90;11.30;;;;;;4161720;28;19977;-84
2021/12/08 02:49:54;;;;;;;;;;;4.20;17.80;;;;;;4160402;28;19978;-84
2021/12/08 02:52:01;;;;;;;;;;;4.20;17.40;;;;;;4164877;28;20469;-84
2021/12/08 02:54:04;;;;;;;;;;;4.20;17.90;;;;;;4165491;28;19986;-84
2021/12/08 02:56:05;;;;;;;;;;;4.30;18.10;;;;;;4162876;28;19978;-84
2021/12/08 02:58:07;;;;;;;;;;;4.30;17.40;;;;;;4166535;28;19992;-84
2021/12/08 03:00:11;;;;;;;;;;;4.30;17.80;;;;;;4155052;28;19977;-85
2021/12/08 03:02:13;;;;;;;;;;;4.30;18.00;;;;;;4164171;28;19969;-84
2021/12/08 03:04:15;;;;;;;;;;;4.30;18.50;;;;;;4162803;28;20036;-84
2021/12/08 03:06:17;;;;;;;;;;;4.30;18.40;;;;;;4159175;28;20052;-83
2021/12/08 03:08:19;;;;;;;;;;;4.30;18.10;;;;;;4158378;28;19969;-83
2021/12/08 03:10:32;;;;;;;;;;;4.30;18.80;;;;;;4161144;28;20060;-85
2021/12/08 03:12:34;;;;;;;;;;;4.30;19.00;;;;;;4157607;28;20020;-83
2021/12/08 03:14:35;;;;;;;;;;;4.30;18.40;;;;;;4155436;28;20380;-87
2021/12/08 03:16:40;;;;;;;;;;;4.30;18.90;;;;;;4157223;28;19973;-83
2021/12/08 03:18:42;;;;;;;;;;;4.30;19.30;;;;;;4163642;28;19965;-84
2021/12/08 03:20:46;;;;;;;;;;;4.30;19.30;;;;;;4162352;28;19977;-84
2021/12/08 03:22:50;;;;;;;;;;;4.30;19.10;;;;;;4157481;28;19984;-84
2021/12/08 03:24:55;;;;;;;;;;;4.30;20.00;;;;;;4164513;28;19989;-85
2021/12/08 03:29:19;;;;;;;;;;;4.40;20.40;;;;;;4159894;28;19974;-84
2021/12/08 03:31:28;;;;;;;;;;;4.40;20.00;;;;;;4165286;28;19969;-83
2021/12/08 03:33:30;;;;;;;;;;;4.40;19.60;;;;;;4159721;28;20692;-83
2021/12/08 03:35:33;;;;;;;;;;;4.40;20.30;;;;;;4163197;28;19977;-83
2021/12/08 03:37:36;;;;;;;;;;;4.40;20.50;;;;;;4160246;28;19992;-83
2021/12/08 03:39:42;;;;;;;;;;;4.40;21.10;;;;;;4165411;28;19961;-84
2021/12/08 03:41:45;;;;;;;;;;;4.40;22.40;;;;;;4161220;28;20068;-83
2021/12/08 03:43:51;;;;;;;;;;;4.40;23.80;;;;;;4161486;28;20525;-84
2021/12/08 03:45:57;;;;;;;;;;;4.40;24.30;;;;;;4162584;28;20062;-83
2021/12/08 03:48:07;;;;;;;;;;;4.40;24.40;;;;;;4156718;28;19989;-84
2021/12/08 03:50:11;;;;;;;;;;;4.40;24.70;;;;;;4162157;28;19977;-84
2021/12/08 03:52:13;;;;;;;;;;;4.40;25.30;;;;;;4162126;28;19970;-84
2021/12/08 03:54:15;;;;;;;;;;;4.40;25.90;;;;;;4189140;28;19988;-83
2021/12/08 03:56:25;;;;;;;;;;;4.40;26.50;;;;;;4162863;28;20013;-83
2021/12/08 03:58:27;;;;;;;;;;;4.40;26.80;;;;;;4164294;28;19985;-83
2021/12/08 04:00:31;;;;;;;;;;;4.40;27.00;;;;;;4165417;28;20037;-84
2021/12/08 04:02:32;;;;;;;;;;;4.40;28.30;;;;;;4164870;28;20481;-84
2021/12/08 04:04:43;;;;;;;;;;;4.40;30.00;;;;;;4162902;28;19969;-84
2021/12/08 04:06:49;;;;;;;;;;;4.50;30.00;;;;;;4163622;28;19985;-84
2021/12/08 04:08:56;;;;;;;;;;;4.40;29.90;;;;;;4161457;28;20043;-83
2021/12/08 04:11:03;;;;;;;;;;;4.50;31.30;;;;;;4159359;28;19977;-84
2021/12/08 04:13:05;;;;;;;;;;;4.50;34.00;;;;;;4165287;28;20024;-83
2021/12/08 04:15:12;;;;;;;;;;;4.40;33.50;;;;;;4161442;28;19997;-83
2021/12/08 04:17:28;;;;;;;;;;;4.50;33.70;;;;;;4161658;28;19985;-83
2021/12/08 04:19:47;;;;;;;;;;;4.50;34.60;;;;;;4159621;28;20096;-84
2021/12/08 04:21:51;;;;;;;;;;;4.50;34.00;;;;;;4165311;28;19970;-83
2021/12/08 04:23:57;;;;;;;;;;;4.50;34.70;;;;;;4161400;28;19972;-83
2021/12/08 04:25:59;;;;;;;;;;;4.60;34.40;;;;;;4161715;28;19984;-84
2021/12/08 04:28:11;;;;;;;;;;;4.60;33.90;;;;;;4162831;28;20031;-83
2021/12/08 04:30:19;;;;;;;;;;;4.50;34.80;;;;;;4164253;28;19969;-84
2021/12/08 04:32:22;;;;;;;;;;;4.60;34.40;;;;;;4194865;28;19982;-83
2021/12/08 04:34:32;;;;;;;;;;;4.60;34.00;;;;;;4161580;28;20012;-85
2021/12/08 04:36:40;;;;;;;;;;;4.60;34.50;;;;;;4193440;28;19968;-83
2021/12/08 04:38:51;;;;;;;;;;;4.60;33.90;;;;;;4163083;28;20654;-84
2021/12/08 04:43:12;;;;;;;;;;;4.70;34.50;;;;;;4164078;28;19984;-84
2021/12/08 04:45:23;;;;;;;;;;;4.70;33.90;;;;;;4162731;28;19958;-84
2021/12/08 04:47:34;;;;;;;;;;;4.70;34.80;;;;;;4192705;28;19984;-83
2021/12/08 04:52:09;;;;;;;;;;;4.70;34.10;;;;;;4157409;28;19999;-86
2021/12/08 05:01:32;;;;;;;;;;;4.70;34.00;;;;;;4158999;28;19985;-84
2021/12/08 05:04:06;;;;;;;;;;;4.70;34.30;;;;;;4161257;28;19996;-84
2021/12/08 05:07:02;;;;;;;;;;;4.70;35.50;;;;;;4152844;28;19980;-86
2021/12/08 05:08:43;;;;;;;;;;;4.70;35.50;;;;;;4152084;28;20682;-84
2021/12/08 05:10:46;;;;;;;;;;;4.70;35.60;;;;;;4189653;28;19968;-86
2021/12/08 05:12:49;;;;;;;;;;;4.80;36.40;;;;;;4163424;28;19984;-84
2021/12/08 05:14:54;;;;;;;;;;;4.80;36.80;;;;;;4163416;28;22595;-83
2021/12/08 05:16:58;;;;;;;;;;;4.90;38.10;;;;;;4160416;28;19993;-84
2021/12/08 05:19:01;;;;;;;;;;;4.90;38.10;;;;;;4157279;28;20942;-85
2021/12/08 05:21:04;;;;;;;;;;;5.00;39.70;;;;;;4160083;28;19977;-85
2021/12/08 05:23:08;;;;;;;;;;;5.00;38.60;;;;;;4189376;28;19980;-84
2021/12/08 05:25:13;;;;;;;;;;;5.10;38.10;;;;;;4158588;28;19978;-84
2021/12/08 05:27:17;;;;;;;;;;;5.10;36.60;;;;;;4157899;28;19977;-84
2021/12/08 05:29:25;;;;;;;;;;;5.10;37.00;;;;;;4156926;28;19969;-84
2021/12/08 05:31:29;;;;;;;;;;;5.10;35.80;;;;;;4159064;28;20357;-85
2021/12/08 05:33:31;;;;;;;;;;;5.10;36.00;;;;;;4159864;28;19974;-83
2021/12/08 05:35:45;;;;;;;;;;;5.10;35.80;;;;;;4159863;28;20083;-85
2021/12/08 05:37:48;;;;;;;;;;;5.20;34.10;;;;;;4165717;28;19986;-83
2021/12/08 05:39:50;;;;;;;;;;;5.20;34.70;;;;;;4165750;28;19992;-84
2021/12/08 05:42:11;;;;;;;;;;;5.20;34.70;;;;;;4161621;28;20087;-84
2021/12/08 05:44:13;;;;;;;;;;;5.20;32.90;;;;;;4166332;28;20024;-85
2021/12/08 05:46:15;;;;;;;;;;;5.20;31.60;;;;;;4161010;28;19974;-84
2021/12/08 05:48:19;;;;;;;;;;;5.20;31.60;;;;;;4162572;28;20048;-84
2021/12/08 05:50:28;;;;;;;;;;;5.30;30.70;;;;;;4157302;28;20477;-84
2021/12/08 05:52:38;;;;;;;;;;;5.20;30.40;;;;;;4177972;28;20096;-84
2021/12/08 05:54:42;;;;;;;;;;;5.20;29.40;;;;;;4160794;28;20044;-83
2021/12/08 05:56:44;;;;;;;;;;;5.20;29.10;;;;;;4158790;28;19994;-86
2021/12/08 05:58:46;;;;;;;;;;;5.20;29.90;;;;;;4159883;28;19973;-83
2021/12/08 06:00:57;;;;;;;;;;;5.20;29.30;;;;;;4159262;28;19973;-83
2021/12/08 06:02:58;;;;;;;;;;;5.10;29.40;;;;;;4163427;28;19977;-83
2021/12/08 06:05:00;;;;;;;;;;;5.10;29.90;;;;;;4163392;28;19974;-84
2021/12/08 06:07:03;;;;;;;;;;;5.10;29.70;;;;;;4164269;28;20031;-84
2021/12/08 06:09:06;;;;;;;;;;;5.20;29.50;;;;;;4160677;28;20000;-84
2021/12/08 06:11:09;;;;;;;;;;;5.10;29.20;;;;;;4156359;28;19973;-84
2021/12/08 06:13:21;;;;;;;;;;;5.10;28.90;;;;;;4176067;28;20373;-83
2021/12/08 06:15:26;;;;;;;;;;;5.10;29.20;;;;;;4167528;28;19994;-85
2021/12/08 06:17:29;;;;;;;;;;;5.00;28.80;;;;;;4167081;28;20024;-84
2021/12/08 06:19:47;;;;;;;;;;;5.00;29.80;;;;;;4171508;28;19970;-84
2021/12/08 06:21:49;;;;;;;;;;;4.90;29.90;;;;;;4169714;28;19976;-83
2021/12/08 06:23:51;;;;;;;;;;;4.90;30.90;;;;;;4171016;28;20414;-84
2021/12/08 06:25:53;;;;;;;;;;;4.80;31.70;;;;;;4166226;28;19996;-84
2021/12/08 06:27:55;;;;;;;;;;;4.80;33.30;;;;;;4164818;28;19993;-84
2021/12/08 06:29:57;;;;;;;;;;;4.80;33.70;;;;;;4172688;28;19977;-84
2021/12/08 06:32:10;;;;;;;;;;;;;;;;;;;;;
2021/12/08 06:34:16;;;;;;;;;;;4.80;35.50;;;;;;4172666;28;20333;-86
2021/12/08 06:36:32;;;;;;;;;;;4.70;35.40;;;;;;4170509;28;20890;-84
2021/12/08 06:38:35;;;;;;;;;;;4.70;36.60;;;;;;4162128;28;20064;-84
2021/12/08 06:40:37;;;;;;;;;;;4.60;36.90;;;;;;4165986;28;20000;-83
2021/12/08 06:42:47;;;;;;;;;;;4.60;38.90;;;;;;4169915;28;19980;-85
2021/12/08 06:45:05;;;;;;;;;;;4.60;40.90;;;;;;4162221;28;19978;-84
2021/12/08 06:47:25;;;;;;;;;;;4.60;41.50;;;;;;4167036;28;19985;-82
2021/12/08 06:52:49;;;;;;;;;;;;;;;;;;;;;
2021/12/08 06:55:03;;;;;;;;;;;4.60;41.60;;;;;;4154735;28;20033;-84
2021/12/08 06:57:23;;;;;;;;;;;4.60;41.70;;;;;;4162240;28;20257;-83
2021/12/08 06:59:30;;;;;;;;;;;4.60;41.90;;;;;;4165015;28;20080;-85
2021/12/08 07:04:31;;;;;;;;;;;4.60;42.50;;;;;;4174873;28;20004;-87
2021/12/08 07:08:48;;;;;;;;;;;4.60;43.90;;;;;;4162055;28;20095;-85
2021/12/08 07:10:53;;;;;;;;;;;4.60;45.10;;;;;;4161964;28;20458;-84
2021/12/08 07:13:08;;;;;;;;;;;4.60;46.30;;;;;;4167908;28;20537;-85
2021/12/08 07:15:10;;;;;;;;;;;4.70;46.80;;;;;;4164274;28;19985;-84
2021/12/08 07:17:14;;;;;;;;;;;4.70;46.90;;;;;;4163237;28;20001;-83
2021/12/08 07:19:26;;;;;;;;;;;4.70;47.30;;;;;;4169402;28;19958;-83
2021/12/08 07:21:33;;;;;;;;;;;4.80;46.20;;;;;;4176222;28;19970;-84
2021/12/08 07:23:49;;;;;;;;;;;;;;;;;;;;;
2021/12/08 07:25:57;;;;;;;;;;;4.80;45.40;;;;;;4169402;28;20012;-84
2021/12/08 07:28:04;;;;;;;;;;;4.80;45.30;;;;;;4173138;28;20055;-86
2021/12/08 07:30:09;;;;;;;;;;;4.70;45.00;;;;;;4171610;28;19960;-85
2021/12/08 07:32:17;;;;;;;;;;;4.70;44.80;;;;;;4173755;28;19973;-83
2021/12/08 07:34:20;;;;;;;;;;;4.70;46.00;;;;;;4173757;28;20011;-86
2021/12/08 07:37:23;;;;;;;;;;;4.70;46.10;;;;;;4174251;28;20013;-85
2021/12/08 07:39:31;;;;;;;;;;;4.70;47.60;;;;;;4169390;28;20052;-84
2021/12/08 07:41:36;;;;;;;;;;;4.70;46.90;;;;;;4165953;28;19976;-85
2021/12/08 07:43:40;;;;;;;;;;;4.70;47.60;;;;;;4166084;28;20471;-85
2021/12/08 07:45:47;;;;;;;;;;;4.70;47.00;;;;;;4169035;28;19992;-83
2021/12/08 07:48:14;;;;;;;;;;;4.70;47.50;;;;;;4169209;28;20017;-85
2021/12/08 07:50:18;;;;;;;;;;;4.70;46.50;;;;;;4198275;28;19973;-85
2021/12/08 07:52:48;;;;;;;;;;;4.70;46.80;;;;;;4163645;28;19996;-85
2021/12/08 07:55:02;;;;;;;;;;;4.70;47.20;;;;;;4167689;28;19969;-84
2021/12/08 07:57:07;;;;;;;;;;;4.70;46.30;;;;;;4167102;28;19996;-86
2021/12/08 07:59:25;;;;;;;;;;;4.70;45.80;;;;;;4170188;28;20071;-87
2021/12/08 08:01:36;;;;;;;;;;;4.70;45.80;;;;;;4182999;28;19992;-86
2021/12/08 08:03:52;;;;;;;;;;;;;;;;;;;;;
2021/12/08 08:05:55;;;;;;;;;;;4.60;46.80;;;;;;4170426;28;19974;-86
2021/12/08 08:08:02;;;;;;;;;;;4.60;47.50;;;;;;4170210;28;20057;-85
2021/12/08 08:10:26;;;;;;;;;;;4.60;47.50;;;;;;4162261;28;19970;-85
2021/12/08 08:12:44;;;;;;;;;;;4.60;47.20;;;;;;4160956;28;20131;-85
2021/12/08 08:14:51;;;;;;;;;;;4.60;47.40;;;;;;4177878;28;19969;-86
2021/12/08 08:16:56;;;;;;;;;;;4.60;47.60;;;;;;4162062;28;19990;-85
2021/12/08 08:19:06;;;;;;;;;;;4.60;47.90;;;;;;4165919;28;19999;-84
2021/12/08 08:21:10;;;;;;;;;;;4.60;48.30;;;;;;4165349;28;20509;-85
2021/12/08 08:23:12;;;;;;;;;;;4.60;48.30;;;;;;4165817;28;19973;-85
2021/12/08 08:25:16;;;;;;;;;;;4.70;49.00;;;;;;4163822;28;19969;-84
2021/12/08 08:27:21;;;;;;;;;;;4.70;49.00;;;;;;4166627;28;20364;-85
2021/12/08 08:29:26;;;;;;;;;;;4.70;49.30;;;;;;4164835;28;20665;-85
2021/12/08 08:31:33;;;;;;;;;;;4.70;49.00;;;;;;4165844;28;19990;-86
2021/12/08 08:33:35;;;;;;;;;;;4.70;49.00;;;;;;4199588;28;19969;-85
2021/12/08 08:36:04;;;;;;;;;;;4.80;48.80;;;;;;4165121;28;19993;-85
2021/12/08 08:38:15;;;;;;;;;;;4.80;48.20;;;;;;4178090;28;20000;-84
2021/12/08 08:40:23;;;;;;;;;;;4.90;48.10;;;;;;4165198;28;20064;-85
2021/12/08 08:42:27;;;;;;;;;;;4.90;47.60;;;;;;4164583;28;19969;-85
2021/12/08 08:44:37;;;;;;;1.07;1.07;;;4.80;46.50;;;;;;4163272;28;20576;-84
2021/12/08 08:46:41;;;;;;;;;;;4.90;47.00;;;;;;4164816;28;20453;-85
2021/12/08 08:48:51;;;;;;;;;;;4.90;45.30;;;;;;4174914;28;19973;-85
2021/12/08 08:51:09;;;;;;;;;;;4.90;45.90;;;;;;4162413;28;20019;-85
2021/12/08 08:53:10;;;;;;;;;;;5.00;43.30;;;;;;4161681;28;19970;-87
2021/12/08 08:55:17;;;;;;;;;;;5.00;42.40;;;;;;4163105;28;20013;-84
2021/12/08 08:57:24;;;;;;;;;;;5.00;41.50;;;;;;4163636;28;20660;-84
2021/12/08 08:59:29;;;;;;;;;;;5.00;41.70;;;;;;4161832;28;20077;-85
2021/12/08 09:01:33;;;;;;;;;;;5.00;40.60;;;;;;4161456;28;19970;-85
2021/12/08 09:03:40;;;;;;;;;;;5.00;40.90;;;;;;4193862;28;19980;-85
2021/12/08 09:05:54;;;;;;;;;;;5.10;40.90;;;;;;4163072;28;19969;-84
2021/12/08 09:07:57;;;;;;;;;;;5.10;39.60;;;;;;4164308;28;20067;-85
2021/12/08 09:10:02;;;;;;;;;;;5.10;39.60;;;;;;4178459;28;19973;-85
2021/12/08 09:12:04;;;;;;;;;;;5.20;38.00;;;;;;4179190;28;19973;-85
2021/12/08 09:14:20;;;;;;;;;;;5.20;37.10;;;;;;4164967;28;19974;-85
2021/12/08 09:16:35;;;;;;;;;;;5.20;36.30;;;;;;4163736;28;19981;-84
2021/12/08 09:18:44;;;;;;;;;;;5.20;36.70;;;;;;4163903;28;20009;-86
2021/12/08 09:20:55;;;;;;;;;;;5.20;35.90;;;;;;4161711;28;20409;-85
2021/12/08 09:23:21;;;;;;;;;;;5.20;34.10;;;;;;4167939;28;19965;-84
2021/12/08 09:25:43;;;;;;;;;;;5.20;33.50;;;;;;4162904;28;19974;-85
2021/12/08 09:27:50;;;;;;;;;;;5.20;32.90;;;;;;4164809;28;20081;-84
2021/12/08 09:29:56;;;;;;;;;;;5.20;30.20;;;;;;4166497;28;20009;-87
2021/12/08 09:32:08;;;;;;;;;;;5.30;27.80;;;;;;4174519;28;19969;-85
2021/12/08 09:34:14;;;;;;;;;;;5.20;22.40;;;;;;4171255;28;19969;-85
2021/12/08 09:36:18;;;;;;;;;;;5.20;22.20;;;;;;4163242;28;19985;-86
2021/12/08 09:38:25;;;;;;;;;;;5.20;22.80;;;;;;4160220;28;19985;-87
2021/12/08 09:40:33;;;;;;;;;;;5.20;22.00;;;;;;4191359;28;19984;-86
2021/12/08 09:42:39;;;;;;;;;;;5.10;22.10;;;;;;4163476;28;20340;-84
2021/12/08 09:44:43;;;;;;;;;;;5.10;21.30;;;;;;4166140;28;20438;-85
2021/12/08 09:46:46;;;;;;;;;;;5.10;21.20;;;;;;4166581;28;19992;-85
2021/12/08 09:48:49;;;;;;;;;;;5.10;22.10;;;;;;4165348;28;19982;-86
2021/12/08 09:50:50;;;;;;;;;;;5.10;22.30;;;;;;4170935;28;20072;-85
2021/12/08 09:52:55;;;;;;;;;;;5.10;22.80;;;;;;4166541;28;20044;-85
2021/12/08 09:54:58;;;;;;;;;;;5.10;22.60;;;;;;4167971;28;19969;-85
2021/12/08 09:57:16;;;;;;;;;;;5.10;22.60;;;;;;4164164;28;20500;-85
2021/12/08 09:59:21;;;;;;;;;;;5.10;23.30;;;;;;4165696;28;19980;-83
2021/12/08 10:01:24;;;;;;;;;;;5.10;23.40;;;;;;4166162;28;20447;-85
2021/12/08 10:03:26;;;;;;;;;;;5.10;23.10;;;;;;4167869;28;19974;-85
2021/12/08 10:05:40;;;;;;;;;;;;;;;;;;;;;
2021/12/08 10:08:10;;;;;;;;;;;5.10;25.20;;;;;;4164046;28;19993;-85
2021/12/08 10:10:14;;;;;;;;;;;5.10;24.70;;;;;;4161278;28;20024;-85
2021/12/08 10:12:16;;;;;;;;;;;5.10;24.70;;;;;;4163124;28;20356;-86
2021/12/08 10:14:18;;;;;;;;;;;5.10;24.50;;;;;;4172492;28;19978;-86
2021/12/08 10:16:24;;;;;;;;;;;5.10;24.80;;;;;;4159664;28;19989;-86
2021/12/08 10:18:42;;;;;;;;;;;5.20;25.10;;;;;;4158535;28;19979;-85
2021/12/08 10:20:46;;;;;;;;;;;5.20;24.80;;;;;;4165855;28;19969;-86
2021/12/08 10:23:07;;;;;;;;;;;5.20;24.80;;;;;;4174466;28;20016;-85
2021/12/08 10:25:09;;;;;;;;;;;5.20;24.10;;;;;;4166652;28;20357;-86
2021/12/08 10:27:10;;;;;;;;;;;5.20;24.10;;;;;;4159472;28;20084;-85
2021/12/08 10:29:15;;;;;;;;;;;5.20;23.70;;;;;;4157177;28;20008;-85
2021/12/08 10:31:37;;;;;;;;;;;5.20;24.80;;;;;;4157116;28;19970;-85
2021/12/08 10:36:34;;;;;;;;;;;5.20;25.30;;;;;;4158982;28;19985;-85
2021/12/08 10:38:37;;;;;;;;;;;5.30;27.30;;;;;;4156475;28;20140;-85
2021/12/08 10:40:54;;;;;;;;;;;5.20;26.30;;;;;;4160056;28;20471;-85
2021/12/08 10:42:56;;;;;;;;;;;5.20;27.40;;;;;;4176184;28;20402;-85
2021/12/08 10:45:11;;;;;;;;;;;5.20;28.00;;;;;;4172964;28;20019;-85
2021/12/08 10:47:18;;;;;;;;;;;5.20;28.40;;;;;;4193998;28;19988;-85
2021/12/08 10:49:28;;;;;;;;;;;5.30;28.20;;;;;;4162802;28;19980;-86
2021/12/08 10:56:13;;;;;;;;;;;5.30;27.80;;;;;;4158076;28;19993;-85
2021/12/08 10:58:23;;;;;;;;;;;5.30;28.40;;;;;;4157780;28;20013;-86
2021/12/08 11:00:28;;;;;;;;;;;5.30;28.20;;;;;;4163261;28;20047;-85
2021/12/08 11:02:37;;;;;;;;;;;5.30;28.20;;;;;;4162754;28;20333;-85
2021/12/08 11:04:38;;;;;;;;;;;5.30;27.70;;;;;;4165866;28;20020;-86
2021/12/08 11:06:40;;;;;;;;;;;5.30;27.20;;;;;;4159009;28;19974;-85
2021/12/08 11:08:44;;;;;;;;;;;5.40;27.90;;;;;;4157705;28;19980;-86
2021/12/08 11:10:48;;;;;;;;;;;5.40;28.10;;;;;;4160699;28;20499;-86
2021/12/08 11:12:52;;;;;;;;;;;5.40;27.60;;;;;;4158507;28;19970;-86
2021/12/08 11:14:55;;;;;;;;;;;5.40;27.80;;;;;;4160780;28;20382;-85
2021/12/08 11:16:57;;;;;;;;;;;5.40;27.40;;;;;;4157349;28;19993;-84
2021/12/08 11:19:14;;;;;;;;;;;5.50;27.50;;;;;;4160344;28;19989;-85
2021/12/08 11:21:24;;;;;;;;;;;5.50;26.40;;;;;;4166353;28;20016;-85
2021/12/08 11:24:05;;;;;;;;;;;5.50;26.00;;;;;;4158099;28;20056;-84
2021/12/08 11:26:29;;;;;;;;;;;5.60;25.30;;;;;;4161041;28;19974;-84
2021/12/08 11:28:40;;;;;;;;;;;5.60;25.40;;;;;;4156709;28;19984;-84
2021/12/08 11:31:01;;;;;;;;;;;5.60;25.30;;;;;;4158429;28;19969;-84
2021/12/08 11:33:33;;;;;;;;;;;5.60;22.70;;;;;;4156467;28;19977;-83
2021/12/08 11:35:45;;;;;;;;;;;5.60;18.10;;;;;;4154207;28;19973;-85
2021/12/08 11:38:00;;;;;;;;;;;5.60;17.70;;;;;;4155730;28;20024;-84
2021/12/08 11:40:15;;;;;;;;;;;5.70;15.00;;;;;;4158420;28;19969;-83
2021/12/08 11:42:19;;;;;;;;;;;5.70;13.10;;;;;;4158381;28;20004;-84
2021/12/08 11:44:23;;;;;;;;;;;5.70;9.70;;;;;;4159722;28;20031;-83
2021/12/08 11:46:36;;;;;;;;;;;5.70;7.90;;;;;;4155801;28;20659;-83
2021/12/08 11:48:52;;;;;;;;;;;5.70;7.10;;;;;;4159835;28;19970;-83
2021/12/08 11:51:15;;;;;;;;;;;5.70;8.30;;;;;;4160586;28;20806;-83
2021/12/08 11:53:21;;;;;;;;;;;5.70;5.40;;;;;;4159341;28;20434;-84
2021/12/08 11:55:25;;;;;;;;;;;5.70;4.00;;;;;;4175167;28;19973;-84
2021/12/08 11:57:36;;;;;;;;;;;5.70;4.20;;;;;;4158505;28;19998;-83
2021/12/08 11:59:54;;;;;;;;;;;5.70;3.70;;;;;;4160717;28;20455;-83
2021/12/08 12:01:56;;;;;;;;;;;5.70;4.30;;;;;;4191870;28;19975;-84
2021/12/08 12:04:01;;;;;;;;;;;5.70;3.40;;;;;;4162011;28;19977;-83
2021/12/08 12:06:02;;;;;;;;;;;5.70;1.00;;;;;;4164690;28;19977;-83
2021/12/08 12:08:05;;;;;;;;;;;5.70;1.20;;;;;;4165793;28;19995;-83
2021/12/08 12:10:08;;;;;;;;;;;5.70;1.00;;;;;;4157398;28;19997;-85
2021/12/08 12:12:10;;;;;;;;;;;5.70;1.00;;;;;;4160076;28;19979;-83
2021/12/08 12:14:12;;;;;;;;;;;5.70;1.00;;;;;;4159811;28;19976;-83
2021/12/08 12:16:14;;;;;;;;;;;5.80;1.00;;;;;;4160913;28;19990;-83
2021/12/08 12:18:17;;;;;;;;;;;5.80;1.30;;;;;;4160170;28;20036;-84
2021/12/08 12:20:29;;;;;;;;;;;5.80;1.00;;;;;;4162554;28;20426;-83
2021/12/08 12:22:44;;;;;;;;;;;5.80;1.00;;;;;;4159792;28;20012;-83
2021/12/08 12:24:49;;;;;;;;;;;5.90;1.00;;;;;;4158248;28;19976;-83
2021/12/08 12:27:21;;;;;;;;;;;5.90;1.00;;;;;;4187613;28;20584;-83
2021/12/08 12:29:41;;;;;;;;;;;5.90;1.00;;;;;;4156939;28;19961;-84
2021/12/08 12:31:54;;;;;;;;;;;5.90;1.00;;;;;;4160558;28;19976;-82
2021/12/08 12:34:31;;;;;;;;;;;5.90;1.00;;;;;;4187938;28;19972;-83
2021/12/08 12:36:35;;;;;;;;;;;5.90;1.00;;;;;;4161177;28;20441;-83
2021/12/08 12:38:38;;;;;;;;;;;5.90;1.00;;;;;;4159255;28;20064;-84
2021/12/08 12:40:52;;;;;;;;;;;5.90;1.00;;;;;;4164823;28;19970;-83
2021/12/08 12:42:55;;;;;;;;;;;5.90;1.00;;;;;;4163269;28;19973;-83
2021/12/08 12:44:57;;;;;;;;;;;5.90;1.00;;;;;;4172609;28;19992;-83
2021/12/08 12:49:21;;;;;;;;;;;6.00;1.00;;;;;;4158945;28;20433;-83
2021/12/08 12:51:26;;;;;;;;;;;6.00;1.00;;;;;;4160390;28;19973;-83
2021/12/08 12:53:29;;;;;;;;;;;5.90;1.00;;;;;;4157421;28;20045;-83
2021/12/08 12:55:44;;;;;;;;;;;5.90;1.00;;;;;;4157948;28;20004;-83
2021/12/08 12:58:01;;;;;;;;;;;5.90;1.00;;;;;;4159110;28;19999;-83
2021/12/08 13:00:23;;;;;;;;;;;5.90;1.00;;;;;;4160836;28;20000;-83
2021/12/08 13:02:34;;;;;;;;;;;5.90;1.00;;;;;;4158500;28;19980;-83
2021/12/08 13:04:51;;;;;;;;;;;6.00;1.00;;;;;;4158645;28;19977;-83
2021/12/08 13:07:01;;;;;;;;;;;6.00;1.00;;;;;;4159638;28;19997;-84
2021/12/08 13:09:04;;;;;;;;;;;6.00;1.00;;;;;;4163146;28;20032;-83
2021/12/08 13:11:28;;;;;;;;;;;6.00;1.00;;;;;;4161704;28;19980;-83
2021/12/08 13:13:43;;;;;;;;;;;5.90;1.00;;;;;;4158753;28;20505;-83
2021/12/08 13:15:45;;;;;;;;;;;6.00;1.00;;;;;;4158298;28;20012;-83
2021/12/08 13:18:06;;;;;;;;;;;6.00;1.00;;;;;;4161839;28;19989;-83
2021/12/08 13:20:11;;;;;;;;;;;6.00;1.00;;;;;;4163301;28;19969;-83
2021/12/08 13:22:31;;;;;;;;;;;6.00;1.00;;;;;;4163442;28;19976;-83
2021/12/08 13:24:41;;;;;;;;;;;5.90;1.00;;;;;;4189201;28;19976;-83
2021/12/08 13:26:49;;;;;;;;;;;5.90;1.00;;;;;;4156893;28;19997;-83
2021/12/08 13:29:10;;;;;;;;;;;5.90;1.00;;;;;;4156722;28;19969;-83
2021/12/08 13:33:38;;;;;;;;;;;5.90;1.00;;;;;;4156190;28;19999;-82